Time;durP1;ratioP1;P1;durP2;ratioP2;P2;SDS_P1;SDS_P2;PMS_P1;PMS_P2;Temp;Humidity;BMP_temperature;BMP_pressure;BME280_temperature;BME280_humidity;BME280_pressure;Samples;Min_cycle;Max_cycle;Signal;HPM_P1;HPM_P2
2023/03/30 00:01:13;;;;;;;9.10;3.05;;;;;;;7.04;33.13;101990.03;5049126;28;20412;-75
2023/03/30 00:03:39;;;;;;;7.78;2.55;;;;;;;6.98;33.56;101994.94;5047153;28;20405;-75
2023/03/30 00:06:05;;;;;;;9.30;2.97;;;;;;;6.89;33.45;101991.19;5034297;28;20386;-75
2023/03/30 00:08:32;;;;;;;8.90;3.13;;;;;;;6.89;33.90;101992.00;5032365;28;20390;-74
2023/03/30 00:11:10;;;;;;;9.30;3.38;;;;;;;6.81;33.89;101983.03;5045119;28;20384;-74
2023/03/30 00:13:36;;;;;;;10.43;3.45;;;;;;;6.84;34.09;101985.41;5035916;28;20392;-74
2023/03/30 00:16:04;;;;;;;9.35;2.88;;;;;;;6.86;33.81;102008.06;5045569;28;20457;-75
2023/03/30 00:18:30;;;;;;;15.60;6.35;;;;;;;6.83;33.84;102000.38;5032913;28;20453;-75
2023/03/30 00:21:01;;;;;;;9.80;4.00;;;;;;;6.79;34.12;101998.09;5046357;28;20405;-75
2023/03/30 00:23:27;;;;;;;9.77;3.13;;;;;;;6.80;34.15;101994.50;5052370;28;20401;-74
2023/03/30 00:25:53;;;;;;;6.50;2.47;;;;;;;6.82;33.77;101997.88;5055280;28;20377;-75
2023/03/30 00:28:18;;;;;;;8.15;2.80;;;;;;;6.62;34.31;101996.69;5070305;28;20397;-74
2023/03/30 00:30:43;;;;;;;9.27;3.10;;;;;;;6.51;34.92;102000.94;5075033;28;20391;-74
2023/03/30 00:33:09;;;;;;;10.67;3.43;;;;;;;6.65;34.78;102002.59;5074022;28;20445;-74
2023/03/30 00:35:35;;;;;;;8.35;3.28;;;;;;;6.53;34.72;102000.00;5072790;28;20408;-75
2023/03/30 00:38:02;;;;;;;8.95;3.45;;;;;;;6.52;34.76;102007.09;5065454;28;20450;-76
2023/03/30 00:40:30;;;;;;;8.95;3.58;;;;;;;6.40;34.90;102002.69;5052659;28;20772;-75
2023/03/30 00:43:04;;;;;;;10.77;3.50;;;;;;;6.37;35.01;102000.28;5050988;28;20393;-75
2023/03/30 00:45:35;;;;;;;8.07;3.40;;;;;;;6.06;35.88;101997.22;5051194;28;20915;-75
2023/03/30 00:48:10;;;;;;;10.70;3.45;;;;;;;5.99;35.89;102002.06;5052116;28;20476;-75
2023/03/30 00:50:45;;;;;;;7.25;3.50;;;;;;;6.06;35.91;102002.47;5051061;28;20376;-75
2023/03/30 00:53:19;;;;;;;9.05;3.50;;;;;;;6.16;35.52;102005.28;5051762;28;20405;-74
2023/03/30 00:55:46;;;;;;;9.75;3.50;;;;;;;6.25;35.61;102002.03;5048370;28;20497;-75
2023/03/30 00:58:14;;;;;;;11.63;4.13;;;;;;;6.19;35.34;101994.53;5035954;28;20389;-74
2023/03/30 01:00:42;;;;;;;11.85;4.47;;;;;;;6.30;35.58;101998.09;5051703;28;20435;-75
2023/03/30 01:03:23;;;;;;;7.85;3.83;;;;;;;6.34;35.24;101988.19;5034540;28;20398;-75
2023/03/30 01:05:50;;;;;;;11.03;5.20;;;;;;;6.37;35.39;101980.03;5039645;28;20481;-75
2023/03/30 01:08:17;;;;;;;11.52;4.25;;;;;;;6.30;35.06;101978.81;5044253;28;20721;-75
2023/03/30 01:10:45;;;;;;;10.00;4.50;;;;;;;6.17;35.43;101983.28;5051103;28;20383;-75
2023/03/30 01:13:13;;;;;;;10.40;4.32;;;;;;;6.03;35.51;101974.59;5048536;28;20381;-75
2023/03/30 01:15:53;;;;;;;11.55;5.30;;;;;;;5.96;35.62;101980.38;5039706;28;20377;-74
2023/03/30 01:18:37;;;;;;;13.20;4.95;;;;;;;5.98;35.74;101994.25;5050467;28;20388;-74
2023/03/30 01:21:33;;;;;;;11.43;4.85;;;;;;;5.91;36.17;101976.25;5039439;28;20422;-75
2023/03/30 01:24:14;;;;;;;17.65;7.13;;;;;;;5.84;36.34;101980.28;5039321;28;20908;-75
2023/03/30 01:26:46;;;;;;;18.10;6.35;;;;;;;5.71;36.60;101982.09;5041131;28;20384;-74
2023/03/30 01:29:19;;;;;;;8.83;3.97;;;;;;;5.43;37.00;101976.09;5037489;28;20393;-74
2023/03/30 01:31:45;;;;;;;12.48;4.22;;;;;;;5.27;37.19;101980.72;5042398;28;20384;-75
2023/03/30 01:34:41;;;;;;;9.40;4.20;;;;;;;5.30;37.23;101989.22;5043897;28;20398;-74
2023/03/30 01:37:26;;;;;;;11.10;4.50;;;;;;;5.26;37.92;101984.31;5043660;28;20471;-74
2023/03/30 01:39:54;;;;;;;11.27;4.50;;;;;;;5.22;37.82;101990.69;5039823;28;20390;-74
2023/03/30 01:42:50;;;;;;;8.60;4.33;;;;;;;5.12;37.95;101983.44;5041225;28;20452;-74
2023/03/30 01:45:30;;;;;;;8.77;4.63;;;;;;;5.12;38.14;101990.47;5045925;28;20400;-74
2023/03/30 01:48:22;;;;;;;9.27;4.47;;;;;;;5.19;38.03;101978.59;5042187;28;20450;-74
2023/03/30 01:50:56;;;;;;;10.23;4.43;;;;;;;5.26;37.68;101984.31;5041157;28;20909;-74
2023/03/30 01:53:45;;;;;;;9.80;4.72;;;;;;;5.39;38.09;101985.13;5050969;28;20408;-74
2023/03/30 01:56:31;;;;;;;10.13;4.78;;;;;;;5.49;37.66;101994.09;5051380;28;20458;-75
2023/03/30 01:59:00;;;;;;;9.18;4.75;;;;;;;5.63;37.46;101997.56;5049263;28;20405;-74
2023/03/30 02:01:28;;;;;;;8.40;4.38;;;;;;;5.66;37.20;101998.19;5039548;28;20402;-74
2023/03/30 02:03:57;;;;;;;12.40;7.03;;;;;;;5.69;37.42;101995.34;5051298;28;20385;-74
2023/03/30 02:06:29;;;;;;;69.30;50.92;;;;;;;5.69;37.82;101995.34;5041231;28;20398;-74
2023/03/30 02:08:58;;;;;;;9.20;5.13;;;;;;;5.63;37.83;102000.19;5033592;28;20390;-74
2023/03/30 02:11:25;;;;;;;14.63;5.85;;;;;;;5.59;37.44;101991.66;5046564;28;20583;-73
2023/03/30 02:13:52;;;;;;;11.80;6.60;;;;;;;5.65;37.68;102004.38;5034665;28;20388;-75
2023/03/30 02:16:28;;;;;;;9.25;6.35;;;;;;;5.69;37.41;102005.88;5047718;28;20385;-75
2023/03/30 02:18:54;;;;;;;14.75;9.43;;;;;;;5.77;37.52;101991.34;5037660;28;20847;-75
2023/03/30 02:21:20;;;;;;;11.40;7.10;;;;;;;5.74;37.75;101995.88;5042751;28;20877;-75
2023/03/30 02:23:46;;;;;;;11.40;5.77;;;;;;;5.77;38.46;102002.69;5043545;28;20496;-74
2023/03/30 02:26:12;;;;;;;19.70;12.93;;;;;;;5.82;38.25;102008.47;5033030;28;20405;-74
2023/03/30 02:28:38;;;;;;;13.80;7.00;;;;;;;5.79;37.92;102000.78;5039370;28;20534;-74
2023/03/30 02:31:11;;;;;;;13.90;6.57;;;;;;;5.74;38.03;101992.38;5037621;28;20528;-74
2023/03/30 02:33:58;;;;;;;13.10;6.97;;;;;;;5.82;38.19;102008.47;5047919;28;20391;-74
2023/03/30 02:36:40;;;;;;;13.48;6.25;;;;;;;5.80;38.32;102009.53;5041108;28;20397;-76
2023/03/30 02:39:05;;;;;;;10.10;5.68;;;;;;;5.73;38.75;102002.06;5043217;28;20813;-75
2023/03/30 02:42:05;;;;;;;13.85;5.70;;;;;;;5.77;38.77;102005.31;5032445;28;20463;-74
2023/03/30 02:45:04;;;;;;;16.73;7.38;;;;;;;5.83;38.87;102006.69;5048173;28;20765;-74
2023/03/30 02:47:42;;;;;;;13.55;8.50;;;;;;;5.85;39.30;102016.19;5042964;28;20385;-74
2023/03/30 02:50:22;;;;;;;15.98;8.80;;;;;;;5.86;39.36;102006.47;5042493;28;20724;-74
2023/03/30 02:52:54;;;;;;;13.10;7.78;;;;;;;5.93;39.88;102003.31;5041729;28;20409;-74
2023/03/30 02:55:25;;;;;;;11.95;6.85;;;;;;;5.99;39.85;102014.38;5034122;28;20406;-74
2023/03/30 02:57:53;;;;;;;14.57;7.63;;;;;;;5.97;39.90;102001.31;5040854;28;20477;-74
2023/03/30 03:00:29;;;;;;;16.25;10.57;;;;;;;5.99;39.56;102011.75;5047322;28;20410;-75
2023/03/30 03:02:58;;;;;;;11.88;6.35;;;;;;;5.95;40.11;102016.34;5050877;28;20389;-75
2023/03/30 03:05:26;;;;;;;18.15;13.70;;;;;;;5.98;39.79;102015.31;5034320;28;20483;-74
2023/03/30 03:07:52;;;;;;;14.55;11.27;;;;;;;6.03;39.91;102015.84;5033314;28;20394;-75
2023/03/30 03:10:18;;;;;;;12.18;6.90;;;;;;;6.00;40.24;102011.66;5048863;28;20384;-74
2023/03/30 03:12:44;;;;;;;10.63;6.37;;;;;;;5.97;40.16;102001.31;5048874;28;20461;-74
2023/03/30 03:15:11;;;;;;;12.85;5.70;;;;;;;6.06;40.44;102002.47;5035963;28;20390;-75
2023/03/30 03:17:37;;;;;;;9.77;5.43;;;;;;;6.03;40.79;102002.69;5046145;28;20920;-75
2023/03/30 03:20:04;;;;;;;12.73;6.00;;;;;;;5.99;40.88;102007.31;5036747;28;20383;-75
2023/03/30 03:22:30;;;;;;;9.48;5.43;;;;;;;5.88;40.83;102009.84;5046292;28;20454;-75
2023/03/30 03:24:56;;;;;;;11.95;5.32;;;;;;;5.86;40.82;102009.13;5037869;28;20386;-74
2023/03/30 03:27:22;;;;;;;9.85;5.80;;;;;;;5.81;41.55;102006.78;5036606;28;20390;-74
2023/03/30 03:29:48;;;;;;;10.73;6.05;;;;;;;5.91;40.90;102007.00;5032325;28;20816;-75
2023/03/30 03:32:14;;;;;;;12.07;6.57;;;;;;;5.92;41.02;101998.13;5037962;28;20430;-75
2023/03/30 03:34:43;;;;;;;11.27;6.38;;;;;;;5.93;40.92;102005.09;5049697;28;20865;-74
2023/03/30 03:37:09;;;;;;;13.40;7.85;;;;;;;5.92;41.06;101999.00;5039722;28;20387;-74
2023/03/30 03:39:36;;;;;;;19.15;14.40;;;;;;;5.94;40.42;101997.09;5048015;28;20395;-75
2023/03/30 03:42:02;;;;;;;10.65;5.88;;;;;;;5.97;40.52;101992.59;5042147;28;20505;-74
2023/03/30 03:44:28;;;;;;;10.65;5.20;;;;;;;5.81;41.30;101993.63;5044490;28;20916;-74
2023/03/30 03:46:53;;;;;;;12.50;5.10;;;;;;;5.77;41.78;101989.53;5045110;28;20388;-74
2023/03/30 03:49:19;;;;;;;22.77;20.55;;;;;;;5.97;41.15;102000.50;5044079;28;20465;-74
2023/03/30 03:51:44;;;;;;;16.07;11.50;;;;;;;6.03;40.87;101993.03;5045397;28;20382;-74
2023/03/30 03:54:10;;;;;;;11.97;6.87;;;;;;;6.14;40.85;101997.53;5042706;28;20405;-75
2023/03/30 03:56:35;;;;;;;11.10;6.68;;;;;;;6.17;40.70;101992.00;5044330;28;20932;-76
2023/03/30 03:59:02;;;;;;;12.90;6.88;;;;;;;6.17;40.63;101999.91;5042827;28;20451;-75
2023/03/30 04:01:28;;;;;;;15.68;8.68;;;;;;;6.24;40.44;101997.69;5046823;28;20402;-75
2023/03/30 04:03:54;;;;;;;13.10;7.90;;;;;;;6.25;40.78;101994.94;5043983;28;20471;-75
2023/03/30 04:06:20;;;;;;;15.57;8.47;;;;;;;6.28;40.83;101996.50;5039300;28;20390;-75
2023/03/30 04:08:45;;;;;;;14.67;7.93;;;;;;;6.31;40.50;101991.03;5042616;28;20377;-75
2023/03/30 04:11:11;;;;;;;17.23;9.33;;;;;;;6.39;40.26;101999.22;5044701;28;20383;-76
2023/03/30 04:13:40;;;;;;;13.80;6.90;;;;;;;6.40;40.26;101994.81;5040118;28;20394;-74
2023/03/30 04:16:07;;;;;;;10.77;6.40;;;;;;;6.33;40.45;102002.28;5042373;28;20940;-75
2023/03/30 04:18:33;;;;;;;14.23;7.20;;;;;;;6.32;40.68;102005.91;5044453;28;20392;-75
2023/03/30 04:21:01;;;;;;;14.30;7.20;;;;;;;6.42;40.71;102009.53;5041804;28;20402;-75
2023/03/30 04:23:32;;;;;;;15.73;7.18;;;;;;;6.46;40.35;102002.25;5041294;28;20392;-75
2023/03/30 04:26:03;;;;;;;21.58;13.45;;;;;;;6.42;40.55;102013.97;5046394;28;20378;-75
2023/03/30 04:28:31;;;;;;;20.13;11.40;;;;;;;5.91;41.93;102007.84;5045033;28;20391;-76
2023/03/30 04:31:12;;;;;;;32.55;19.15;;;;;;;5.67;42.00;102006.91;5045542;28;20385;-75
2023/03/30 04:33:49;;;;;;;29.17;16.75;;;;;;;5.74;42.13;102011.66;5040054;28;20382;-74
2023/03/30 04:36:16;;;;;;;28.08;15.15;;;;;;;5.87;41.60;102011.63;5043843;28;20385;-74
2023/03/30 04:38:57;;;;;;;24.60;13.63;;;;;;;5.94;42.12;102019.94;5045178;28;20385;-74
2023/03/30 04:41:34;;;;;;;31.27;14.23;;;;;;;6.00;41.79;102018.72;5039406;28;20406;-74
2023/03/30 04:44:05;;;;;;;29.10;15.70;;;;;;;6.06;41.54;102021.72;5046657;28;20476;-75
2023/03/30 04:46:31;;;;;;;27.85;14.32;;;;;;;6.18;41.25;102024.47;5057893;28;20396;-75
2023/03/30 04:48:56;;;;;;;23.25;12.65;;;;;;;6.23;41.54;102035.50;5036041;28;20426;-76
2023/03/30 04:51:22;;;;;;;21.52;11.88;;;;;;;6.20;41.23;102022.56;5048658;28;20398;-75
2023/03/30 04:53:48;;;;;;;22.35;12.55;;;;;;;6.16;41.12;102024.56;5049838;28;20741;-73
2023/03/30 04:56:13;;;;;;;60.55;25.48;;;;;;;6.09;41.43;102031.22;5044153;28;20492;-74
2023/03/30 04:58:39;;;;;;;33.40;17.30;;;;;;;6.12;41.94;102034.47;5052876;28;20866;-75
2023/03/30 05:01:04;;;;;;;43.03;21.13;;;;;;;6.12;41.86;102031.84;5039700;28;20398;-75
2023/03/30 05:03:30;;;;;;;29.70;14.60;;;;;;;6.20;41.95;102039.19;5030367;28;20391;-74
2023/03/30 05:05:56;;;;;;;22.50;10.98;;;;;;;6.10;42.27;102046.06;5030297;28;20385;-74
2023/03/30 05:08:22;;;;;;;29.65;17.58;;;;;;;5.97;42.51;102045.25;5031811;28;20831;-75
2023/03/30 05:10:48;;;;;;;23.30;14.80;;;;;;;5.86;42.51;102049.41;5033877;28;20924;-76
2023/03/30 05:13:14;;;;;;;21.05;11.65;;;;;;;5.79;42.24;102042.91;5033276;28;20374;-77
2023/03/30 05:15:39;;;;;;;21.05;10.73;;;;;;;5.85;42.73;102039.84;5032407;28;20386;-76
2023/03/30 05:18:05;;;;;;;19.48;10.88;;;;;;;6.05;42.09;102050.78;5033358;28;20457;-76
2023/03/30 05:20:31;;;;;;;20.47;9.10;;;;;;;6.06;42.19;102042.78;5036049;28;20404;-76
2023/03/30 05:22:56;;;;;;;13.77;8.13;;;;;;;6.09;41.83;102039.13;5055356;28;20384;-76
2023/03/30 05:25:21;;;;;;;16.57;10.70;;;;;;;6.13;42.24;102037.94;5066460;28;20379;-76
2023/03/30 05:27:47;;;;;;;18.17;9.63;;;;;;;6.12;42.16;102038.88;5071369;28;20852;-76
2023/03/30 05:30:13;;;;;;;13.90;8.70;;;;;;;5.87;42.68;102037.97;5071607;28;20436;-75
2023/03/30 05:32:38;;;;;;;13.60;8.53;;;;;;;5.81;42.98;102042.78;5065533;28;20386;-75
2023/03/30 05:35:04;;;;;;;14.13;8.77;;;;;;;5.83;42.78;102044.34;5052130;28;20404;-76
2023/03/30 05:37:30;;;;;;;19.55;10.88;;;;;;;5.88;42.83;102044.06;5067978;28;20477;-74
2023/03/30 05:39:55;;;;;;;16.10;11.53;;;;;;;6.02;42.55;102043.97;5072059;28;20458;-74
2023/03/30 05:42:21;;;;;;;16.90;12.20;;;;;;;6.12;42.73;102054.69;5071592;28;20766;-77
2023/03/30 05:44:47;;;;;;;20.35;11.20;;;;;;;6.12;42.52;102050.28;5070370;28;20390;-75
2023/03/30 05:47:12;;;;;;;27.70;12.00;;;;;;;6.29;42.65;102054.34;5067961;28;20380;-75
2023/03/30 05:49:38;;;;;;;28.57;12.83;;;;;;;6.42;42.93;102058.75;5051467;28;20715;-74
2023/03/30 05:52:03;;;;;;;20.27;12.03;;;;;;;6.45;42.90;102059.34;5067907;28;20367;-76
2023/03/30 05:54:29;;;;;;;23.30;13.23;;;;;;;6.60;42.45;102052.13;5070784;28;20405;-75
2023/03/30 05:56:54;;;;;;;24.37;12.50;;;;;;;6.74;42.39;102045.03;5070053;28;20394;-76
2023/03/30 05:59:20;;;;;;;22.55;11.32;;;;;;;6.78;42.52;102036.78;5070371;28;20375;-75
2023/03/30 06:01:46;;;;;;;25.03;11.90;;;;;;;6.92;42.06;102045.50;5067707;28;20418;-75
2023/03/30 06:04:12;;;;;;;21.58;12.52;;;;;;;6.99;42.62;102044.09;5060929;28;20383;-75
2023/03/30 06:06:37;;;;;;;36.70;18.20;;;;;;;7.02;42.57;102033.28;5070640;28;20378;-75
2023/03/30 06:09:03;;;;;;;50.37;27.50;;;;;;;7.13;42.60;102048.31;5062270;28;20376;-75
2023/03/30 06:11:30;;;;;;;50.08;28.13;;;;;;;7.17;42.89;102037.44;5066699;28;20889;-75
2023/03/30 06:13:56;;;;;;;41.70;22.83;;;;;;;7.33;42.49;102050.31;5061401;28;20436;-76
2023/03/30 06:16:22;;;;;;;21.60;14.65;;;;;;;7.38;42.41;102044.66;5053448;28;20391;-76
2023/03/30 06:18:47;;;;;;;26.77;16.88;;;;;;;7.48;42.43;102045.66;5071680;28;20370;-76
2023/03/30 06:21:13;;;;;;;25.90;15.68;;;;;;;7.60;42.51;102052.63;5070193;28;20403;-75
2023/03/30 06:23:40;;;;;;;20.70;12.98;;;;;;;7.66;42.19;102051.31;5071370;28;20383;-75
2023/03/30 06:26:06;;;;;;;22.23;14.48;;;;;;;7.76;41.57;102051.44;5068673;28;20379;-75
2023/03/30 06:28:32;;;;;;;22.65;13.48;;;;;;;7.90;42.25;102058.31;5061147;28;20390;-75
2023/03/30 06:31:00;;;;;;;23.67;14.15;;;;;;;8.04;41.52;102052.78;5058098;28;20383;-76
2023/03/30 06:33:26;;;;;;;22.23;13.18;;;;;;;8.18;41.26;102060.47;5070562;28;20387;-77
2023/03/30 06:35:53;;;;;;;21.60;13.20;;;;;;;8.27;41.48;102060.72;5061788;28;20392;-76
2023/03/30 06:38:20;;;;;;;19.50;13.23;;;;;;;8.38;41.07;102066.81;5061622;28;20377;-77
2023/03/30 06:40:46;;;;;;;20.67;13.55;;;;;;;8.46;40.84;102068.03;5068247;28;20387;-77
2023/03/30 06:43:16;;;;;;;30.67;17.27;;;;;;;8.54;41.04;102074.38;5038292;28;20394;-75
2023/03/30 06:45:42;;;;;;;32.45;18.80;;;;;;;8.67;41.30;102076.88;5066495;28;20704;-76
2023/03/30 06:48:08;;;;;;;27.88;16.45;;;;;;;8.71;40.38;102070.38;5058109;28;20466;-78
2023/03/30 06:50:33;;;;;;;27.33;15.60;;;;;;;8.86;40.54;102070.94;5044260;28;20407;-76
2023/03/30 06:52:59;;;;;;;18.93;10.53;;;;;;;9.01;40.37;102076.78;5051516;28;20392;-75
2023/03/30 06:55:25;;;;;;;16.10;10.30;;;;;;;9.14;40.07;102064.22;5052121;28;20385;-76
2023/03/30 06:57:50;;;;;;;14.80;9.45;;;;;;;9.27;39.61;102065.84;5068571;28;20414;-76
2023/03/30 07:00:16;;;;;;;17.63;10.27;;;;;;;9.35;39.68;102072.16;5086181;28;20380;-74
2023/03/30 07:02:42;;;;;;;16.13;9.27;;;;;;;9.43;39.58;102076.81;5062000;28;20361;-76
2023/03/30 07:05:08;;;;;;;9.63;6.50;;;;;;;9.59;38.49;102080.81;5049223;28;20744;-77
2023/03/30 07:07:35;;;;;;;16.52;6.40;;;;;;;9.64;38.02;102068.88;5047846;28;20840;-76
2023/03/30 07:10:08;;;;;;;11.77;6.77;;;;;;;9.80;37.67;102067.56;5051211;28;20473;-76
2023/03/30 07:12:34;;;;;;;8.77;5.03;;;;;;;9.92;37.29;102071.78;5045420;28;20842;-77
2023/03/30 07:15:00;;;;;;;9.53;5.20;;;;;;;9.93;36.44;102069.03;5045595;28;20463;-76
2023/03/30 07:17:26;;;;;;;8.00;4.73;;;;;;;10.07;36.21;102070.47;5055464;28;20380;-75
2023/03/30 07:19:51;;;;;;;9.95;4.78;;;;;;;10.13;35.72;102072.59;5055042;28;20407;-75
2023/03/30 07:22:17;;;;;;;10.10;4.90;;;;;;;10.12;35.74;102070.94;5054453;28;20801;-74
2023/03/30 07:24:43;;;;;;;8.63;4.57;;;;;;;10.04;35.44;102068.09;5054456;28;20380;-76
2023/03/30 07:27:09;;;;;;;8.43;4.65;;;;;;;10.08;35.51;102069.53;5053580;28;20415;-74
2023/03/30 07:29:35;;;;;;;7.25;5.03;;;;;;;10.26;35.85;102069.72;5054794;28;20841;-75
2023/03/30 07:32:02;;;;;;;9.27;4.15;;;;;;;10.37;35.52;102074.13;5054561;28;20561;-75
2023/03/30 07:34:28;;;;;;;6.55;3.90;;;;;;;10.39;34.91;102050.97;5053719;28;20412;-75
2023/03/30 07:36:53;;;;;;;5.28;3.45;;;;;;;10.42;34.70;102053.31;5054660;28;20722;-76
2023/03/30 07:39:19;;;;;;;8.40;4.10;;;;;;;10.59;34.95;102067.75;5055142;28;20868;-76
2023/03/30 07:41:44;;;;;;;8.37;4.10;;;;;;;10.63;34.60;102070.97;5055127;28;20762;-75
2023/03/30 07:44:10;;;;;;;6.77;3.90;;;;;;;10.69;34.04;102067.75;5055533;28;20381;-76
2023/03/30 07:46:35;;;;;;;7.85;4.22;;;;;;;10.70;33.89;102056.19;5048079;28;20386;-74
2023/03/30 07:49:01;;;;;;;6.67;3.53;;;;;;;10.81;33.45;102050.75;5040324;28;20851;-74
2023/03/30 07:51:27;;;;;;;8.50;3.87;;;;;;;10.88;33.33;102054.50;5045576;28;20420;-74
2023/03/30 07:53:52;;;;;;;10.68;4.32;;;;;;;11.01;33.15;102062.19;5054469;28;20432;-75
2023/03/30 07:56:18;;;;;;;7.53;3.67;;;;;;;11.17;33.28;102066.94;5052257;28;20392;-74
2023/03/30 07:58:43;;;;;;;8.67;3.90;;;;;;;11.32;32.86;102059.38;5053200;28;20377;-74
2023/03/30 08:01:09;;;;;;;7.23;3.77;;;;;;;11.34;32.53;102065.38;5052823;28;20781;-76
2023/03/30 08:03:36;;;;;;;10.35;4.13;;;;;;;11.52;32.47;102069.97;5051978;28;20396;-75
2023/03/30 08:06:05;;;;;;;7.60;4.10;;;;;;;11.66;32.19;102051.75;5052445;28;20424;-75
2023/03/30 08:08:33;;;;;;;6.38;3.80;;;;;;;11.82;31.79;102063.59;5052946;28;20381;-76
2023/03/30 08:10:58;;;;;;;7.20;3.88;;;;;;;11.81;31.79;102061.91;5052941;28;20545;-75
2023/03/30 08:13:24;;;;;;;7.18;3.70;;;;;;;11.74;32.04;102067.00;5057820;28;20409;-76
2023/03/30 08:15:51;;;;;;;4.82;3.53;;;;;;;11.76;32.09;102066.84;5061009;28;20388;-75
2023/03/30 08:18:17;;;;;;;8.13;4.20;;;;;;;11.91;32.04;102073.41;5055385;28;20868;-76
2023/03/30 08:20:44;;;;;;;7.95;3.85;;;;;;;11.89;32.02;102063.88;5051558;28;20397;-76
2023/03/30 08:23:10;;;;;;;5.97;4.03;;;;;;;11.97;31.79;102050.72;5052031;28;20395;-76
2023/03/30 08:25:36;;;;;;;6.75;3.63;;;;;;;11.78;31.92;102052.44;5052537;28;20406;-75
2023/03/30 08:28:04;;;;;;;7.15;3.95;;;;;;;11.85;32.19;102055.34;5054522;28;20726;-76
2023/03/30 08:30:30;;;;;;;7.53;4.07;;;;;;;11.83;32.38;102049.34;5053529;28;20805;-76
2023/03/30 08:32:56;;;;;;;9.48;4.68;;;;;;;11.83;32.47;102036.06;5053757;28;20381;-76
2023/03/30 08:35:22;;;;;;;8.65;4.30;;;;;;;12.01;32.75;102044.09;5052653;28;20725;-75
2023/03/30 08:37:48;;;;;;;12.50;4.38;;;;;;;12.10;32.44;102045.06;5053618;28;20408;-76
2023/03/30 08:40:14;;;;;;;8.48;4.28;;;;;;;11.93;32.59;102041.38;5052799;28;20400;-75
2023/03/30 08:43:02;;;;;;;7.10;4.30;;;;;;;12.06;32.57;102039.19;5053551;28;20453;-76
2023/03/30 08:45:37;;;;;;;10.15;4.78;;;;;;;11.99;32.60;102031.00;5053114;28;20736;-75
2023/03/30 08:48:06;;;;;;;8.97;4.33;;;;;;;12.08;32.64;102026.59;5053675;28;20497;-76
2023/03/30 08:50:33;;;;;;;6.97;3.00;;;;;;;12.10;32.45;102022.00;5053597;28;20408;-76
2023/03/30 08:52:59;;;;;;;6.72;3.20;;;;;;;12.09;32.49;102024.78;5052324;28;20401;-75
2023/03/30 08:55:27;;;;;;;6.50;3.40;;;;;;;12.12;32.48;102017.34;5053699;28;20388;-75
2023/03/30 08:58:08;;;;;;;4.57;3.38;;;;;;;12.28;32.31;102023.84;5052875;28;20730;-76
2023/03/30 09:00:52;;;;;;;5.32;3.33;;;;;;;12.36;32.52;102024.75;5052491;28;20416;-73
2023/03/30 09:03:33;;;;;;;7.43;3.77;;;;;;;12.37;32.85;102014.97;5052655;28;20471;-74
2023/03/30 09:06:17;;;;;;;6.97;3.50;;;;;;;12.48;32.36;102011.25;5043177;28;20382;-75
2023/03/30 09:08:43;;;;;;;7.95;3.45;;;;;;;12.47;32.48;102010.41;5040338;28;20835;-76
2023/03/30 09:11:17;;;;;;;7.65;3.50;;;;;;;12.46;32.57;101997.25;5042936;28;20377;-75
2023/03/30 09:13:45;;;;;;;8.48;3.45;;;;;;;12.65;32.70;102001.63;5052448;28;20482;-76
2023/03/30 09:16:10;;;;;;;7.22;3.15;;;;;;;12.80;32.48;102000.09;5052257;28;20384;-76
2023/03/30 09:18:38;;;;;;;5.05;2.78;;;;;;;12.97;32.80;101995.75;5052388;28;20389;-75
2023/03/30 09:21:05;;;;;;;7.30;2.83;;;;;;;13.08;32.57;101997.34;5051859;28;20400;-75
2023/03/30 09:23:32;;;;;;;7.27;3.33;;;;;;;13.19;32.65;101989.09;5038467;28;20390;-75
2023/03/30 09:26:10;;;;;;;6.63;2.92;;;;;;;13.31;32.49;101993.19;5030752;28;20374;-75
2023/03/30 09:29:00;;;;;;;6.75;2.33;;;;;;;13.16;32.34;101984.06;5029900;28;20854;-76
2023/03/30 09:32:21;;;;;;;3.75;2.40;;;;;;;13.27;31.99;101978.50;5035147;28;20371;-75
2023/03/30 09:35:17;;;;;;;4.65;2.60;;;;;;;13.33;32.02;101985.06;5021449;28;21054;-75
2023/03/30 09:37:43;;;;;;;6.50;3.00;;;;;;;13.46;32.04;101985.47;5040158;28;20391;-76
2023/03/30 09:40:53;;;;;;;6.50;3.10;;;;;;;13.66;31.96;101986.06;5038008;28;20467;-76
2023/03/30 09:43:50;;;;;;;5.20;3.03;;;;;;;13.76;32.14;101988.63;5032426;28;20457;-75
2023/03/30 09:46:16;;;;;;;5.47;3.15;;;;;;;13.75;32.11;101993.09;5030641;28;20460;-77
2023/03/30 09:48:44;;;;;;;8.40;3.33;;;;;;;13.73;31.86;101979.09;5031294;28;21000;-75
2023/03/30 09:51:17;;;;;;;7.43;3.28;;;;;;;13.83;31.97;101981.66;5044941;28;20870;-75
2023/03/30 09:53:45;;;;;;;5.05;3.22;;;;;;;13.87;31.91;101980.34;5050421;28;20408;-75
2023/03/30 09:56:46;;;;;;;5.40;2.63;;;;;;;13.90;31.66;101972.03;5048924;28;20404;-75
2023/03/30 09:59:31;;;;;;;6.13;3.20;;;;;;;13.74;31.78;101970.13;5052621;28;20399;-75
2023/03/30 10:02:12;;;;;;;5.43;2.85;;;;;;;13.58;31.85;101956.72;5047599;28;20491;-76
2023/03/30 10:04:52;;;;;;;5.78;2.97;;;;;;;13.62;31.83;101954.59;5040141;28;20388;-75
2023/03/30 10:07:28;;;;;;;6.75;4.10;;;;;;;13.76;32.04;101965.47;5037939;28;20378;-75
2023/03/30 10:09:54;;;;;;;6.10;3.10;;;;;;;13.56;32.00;101948.88;5036236;28;20724;-76
2023/03/30 10:12:23;;;;;;;6.00;2.70;;;;;;;13.58;32.09;101948.75;5035756;28;20459;-75
2023/03/30 10:14:54;;;;;;;5.30;2.90;;;;;;;13.71;32.10;101945.63;5041712;28;20480;-75
2023/03/30 10:17:23;;;;;;;5.85;3.55;;;;;;;13.79;32.12;101939.47;5051420;28;20383;-75
2023/03/30 10:19:52;;;;;;;6.97;3.90;;;;;;;13.91;32.34;101935.53;5050320;28;20376;-75
2023/03/30 10:22:23;;;;;;;8.80;3.35;;;;;;;13.99;32.23;101922.25;5051024;28;20514;-75
2023/03/30 10:24:52;;;;;;;6.00;3.20;;;;;;;14.00;32.22;101915.88;5050201;28;20389;-75
2023/03/30 10:27:18;;;;;;;5.72;3.10;;;;;;;14.05;31.94;101905.56;5050929;28;20472;-75
2023/03/30 10:29:45;;;;;;;6.90;3.38;;;;;;;13.95;32.13;101900.41;5050645;28;20385;-75
2023/03/30 10:32:15;;;;;;;8.45;4.00;;;;;;;14.09;33.08;101893.56;5050329;28;20369;-75
2023/03/30 10:34:53;;;;;;;10.30;3.30;;;;;;;14.20;32.50;101899.59;5050546;28;20468;-76
2023/03/30 10:37:23;;;;;;;8.10;3.50;;;;;;;13.96;32.46;101891.38;5051345;28;20404;-75
2023/03/30 10:39:51;;;;;;;6.57;2.95;;;;;;;14.10;32.65;101892.59;5051301;28;20414;-75
2023/03/30 10:42:22;;;;;;;7.18;3.13;;;;;;;14.01;32.08;101890.06;5051143;28;20488;-75
2023/03/30 10:44:55;;;;;;;6.95;3.13;;;;;;;13.91;32.37;101887.56;5049502;28;20738;-76
2023/03/30 10:47:23;;;;;;;7.32;3.10;;;;;;;13.92;32.40;101889.22;5050792;28;20384;-78
2023/03/30 10:50:25;;;;;;;5.28;2.95;;;;;;;14.18;32.66;101878.44;5038584;28;20396;-75
2023/03/30 10:53:09;;;;;;;9.18;2.72;;;;;;;14.26;32.44;101869.59;5036948;28;20787;-77
2023/03/30 10:55:37;;;;;;;6.60;3.22;;;;;;;14.17;32.35;101868.78;5046556;28;20410;-75
2023/03/30 10:58:11;;;;;;;8.55;3.38;;;;;;;14.27;32.44;101857.94;5041060;28;20400;-76
2023/03/30 11:00:48;;;;;;;7.68;3.08;;;;;;;14.40;32.60;101841.44;5042966;28;20896;-75
2023/03/30 11:03:25;;;;;;;7.60;2.90;;;;;;;14.37;32.38;101847.09;5040695;28;20395;-75
2023/03/30 11:05:55;;;;;;;5.80;2.70;;;;;;;14.10;32.42;101833.09;5045265;28;20373;-76
2023/03/30 11:08:44;;;;;;;5.47;2.80;;;;;;;14.06;32.56;101832.59;5041394;28;20457;-74
2023/03/30 11:11:19;;;;;;;9.35;3.30;;;;;;;14.09;32.70;101824.25;5044212;28;20393;-75
2023/03/30 11:13:52;;;;;;;8.57;3.08;;;;;;;14.20;32.45;101816.94;5043088;28;20386;-75
2023/03/30 11:16:27;;;;;;;8.52;2.70;;;;;;;14.30;32.52;101809.59;5044304;28;20491;-75
2023/03/30 11:18:52;;;;;;;6.72;3.08;;;;;;;14.24;32.54;101808.44;5045071;28;20391;-76
2023/03/30 11:21:25;;;;;;;5.80;2.80;;;;;;;14.08;32.75;101811.09;5045516;28;20396;-74
2023/03/30 11:23:58;;;;;;;5.70;2.70;;;;;;;14.19;32.79;101801.91;5045316;28;20385;-75
2023/03/30 11:26:39;;;;;;;7.60;3.05;;;;;;;14.40;32.50;101793.41;5045017;28;20377;-75
2023/03/30 11:29:12;;;;;;;9.55;3.03;;;;;;;14.43;32.69;101780.56;5044820;28;20385;-76
2023/03/30 11:31:46;;;;;;;5.90;2.50;;;;;;;14.50;32.43;101778.88;5043935;28;20389;-76
2023/03/30 11:34:40;;;;;;;7.35;2.90;;;;;;;14.53;32.20;101767.03;5040891;28;20881;-75
2023/03/30 11:37:11;;;;;;;8.55;3.10;;;;;;;14.59;32.24;101757.56;5042483;28;20398;-75
2023/03/30 11:39:44;;;;;;;8.68;3.20;;;;;;;14.62;32.39;101759.88;5051129;28;20467;-75